Time;durP1;ratioP1;P1;durP2;ratioP2;P2;SDS_P1;SDS_P2;PMS_P1;PMS_P2;Temp;Humidity;BMP_temperature;BMP_pressure;BME280_temperature;BME280_humidity;BME280_pressure;Samples;Min_cycle;Max_cycle;Signal;HPM_P1;HPM_P2
2021/04/06 00:01:04;;;;;;;9.38;8.35;;;;;;;3.05;77.08;100292.33;1832484;78;21355;-75
2021/04/06 00:03:32;;;;;;;12.73;8.95;;;;;;;3.04;77.08;100294.50;1779373;78;21369;-76
2021/04/06 00:06:02;;;;;;;13.45;8.13;;;;;;;3.02;77.16;100292.41;1805227;78;21001;-74
2021/04/06 00:08:31;;;;;;;11.28;8.58;;;;;;;3.02;77.25;100295.46;1832458;78;20978;-75
2021/04/06 00:11:02;;;;;;;10.00;8.38;;;;;;;3.03;77.29;100300.59;1832477;78;21077;-74
2021/04/06 00:13:35;;;;;;;9.93;8.70;;;;;;;3.05;77.24;100297.96;1832475;78;20942;-74
2021/04/06 00:16:05;;;;;;;10.60;9.10;;;;;;;3.09;77.17;100290.03;1832532;77;21432;-74
2021/04/06 00:18:34;;;;;;;10.75;8.90;;;;;;;3.13;77.03;100280.39;1832380;78;20961;-74
2021/04/06 00:21:04;;;;;;;12.55;9.10;;;;;;;3.19;76.85;100279.34;1805320;78;21361;-74
2021/04/06 00:23:32;;;;;;;16.25;9.43;;;;;;;3.25;76.68;100276.09;1832437;77;21424;-75
2021/04/06 00:26:00;;;;;;;15.03;9.33;;;;;;;3.30;76.54;100268.98;1770367;79;21508;-74
2021/04/06 00:28:34;;;;;;;11.63;9.13;;;;;;;3.37;76.44;100263.13;1786628;79;21464;-76
2021/04/06 00:31:03;;;;;;;10.53;8.75;;;;;;;3.43;76.24;100259.48;1817284;77;21026;-75
2021/04/06 00:33:38;;;;;;;13.10;9.40;;;;;;;3.47;76.02;100261.91;1817330;79;20934;-74
2021/04/06 00:36:07;;;;;;;12.05;10.48;;;;;;;3.51;75.86;100262.62;1817336;77;20915;-74
2021/04/06 00:38:41;;;;;;;12.20;9.85;;;;;;;3.51;75.70;100267.81;1786323;79;21452;-74
2021/04/06 00:41:14;;;;;;;14.90;10.10;;;;;;;3.52;75.57;100270.36;1817440;79;22263;-76
2021/04/06 00:43:44;;;;;;;10.48;9.38;;;;;;;3.47;75.59;100276.17;1817248;79;20978;-75
2021/04/06 00:46:24;;;;;;;12.25;9.40;;;;;;;3.43;75.75;100269.40;1817384;79;21005;-74
2021/04/06 00:48:56;;;;;;;12.85;9.88;;;;;;;3.41;75.89;100272.50;1817171;77;21084;-74
2021/04/06 00:51:24;;;;;;;11.53;9.05;;;;;;;3.40;76.04;100272.54;1817335;78;20907;-72
2021/04/06 00:54:04;;;;;;;14.00;10.13;;;;;;;3.37;76.16;100272.20;1817148;77;21377;-72
2021/04/06 00:56:42;;;;;;;13.98;11.45;;;;;;;3.37;76.24;100276.09;1817232;77;20986;-73
2021/04/06 00:59:14;;;;;;;15.18;9.68;;;;;;;3.37;76.27;100270.08;1817247;79;20947;-73
2021/04/06 01:01:44;;;;;;;12.35;9.45;;;;;;;3.38;76.33;100270.03;1817272;79;20962;-74
2021/04/06 01:04:22;;;;;;;11.40;9.08;;;;;;;3.41;76.37;100266.02;1817309;79;20982;-73
2021/04/06 01:07:09;;;;;;;12.45;8.88;;;;;;;3.44;76.44;100270.23;1817250;79;21437;-73
2021/04/06 01:09:52;;;;;;;12.85;9.50;;;;;;;3.48;76.49;100273.95;1817210;79;20923;-73
2021/04/06 01:12:23;;;;;;;14.60;9.93;;;;;;;3.53;76.44;100269.47;1817361;79;21002;-73
2021/04/06 01:14:53;;;;;;;9.35;8.25;;;;;;;3.58;76.37;100276.20;1817235;77;20954;-74
2021/04/06 01:17:31;;;;;;;11.80;9.28;;;;;;;3.60;76.32;100273.98;1817313;78;20934;-74
2021/04/06 01:20:01;;;;;;;12.55;9.10;;;;;;;3.61;76.27;100267.05;1817288;79;21404;-73
2021/04/06 01:22:30;;;;;;;9.93;7.97;;;;;;;3.64;76.21;100270.34;1817236;79;21444;-73
2021/04/06 01:24:59;;;;;;;12.35;8.80;;;;;;;3.65;76.13;100262.98;1817276;79;21049;-74
2021/04/06 01:27:27;;;;;;;10.05;8.18;;;;;;;3.67;76.11;100265.52;1817171;78;20911;-74
2021/04/06 01:29:57;;;;;;;10.03;8.10;;;;;;;3.68;76.12;100261.56;1817314;78;21572;-73
2021/04/06 01:32:27;;;;;;;9.08;7.85;;;;;;;3.69;76.15;100273.64;1817363;77;22304;-74
2021/04/06 01:34:57;;;;;;;11.22;8.03;;;;;;;3.70;76.14;100262.34;1817587;79;20939;-74
2021/04/06 01:37:25;;;;;;;12.05;7.62;;;;;;;3.70;76.15;100260.22;1817474;77;21479;-74
2021/04/06 01:39:56;;;;;;;12.58;9.28;;;;;;;3.69;76.20;100264.56;1817416;79;20875;-74
2021/04/06 01:42:29;;;;;;;10.80;8.60;;;;;;;3.68;76.26;100260.27;1818856;79;20935;-73
2021/04/06 01:44:56;;;;;;;12.30;8.33;;;;;;;3.69;76.34;100262.39;1817404;79;21813;-73
2021/04/06 01:47:26;;;;;;;11.48;8.25;;;;;;;3.69;76.41;100262.39;1817381;79;21450;-75
2021/04/06 01:49:56;;;;;;;11.57;8.78;;;;;;;3.69;76.46;100254.62;1817385;79;20955;-74
2021/04/06 01:52:27;;;;;;;12.78;9.45;;;;;;;3.69;76.54;100259.38;1787373;79;20922;-74
2021/04/06 01:55:03;;;;;;;11.35;8.90;;;;;;;3.71;76.59;100256.28;1817245;79;21317;-72
2021/04/06 01:57:31;;;;;;;10.80;9.05;;;;;;;3.74;76.57;100261.80;1817027;78;21365;-75
2021/04/06 02:00:01;;;;;;;12.58;9.83;;;;;;;3.74;76.58;100251.42;1817091;79;20938;-73
2021/04/06 02:02:28;;;;;;;11.63;9.95;;;;;;;3.75;76.61;100249.20;1817283;79;21329;-73
2021/04/06 02:04:58;;;;;;;13.32;9.25;;;;;;;3.76;76.67;100250.91;1817351;78;21313;-73
2021/04/06 02:07:32;;;;;;;10.13;9.13;;;;;;;3.78;76.72;100254.30;1817326;79;20923;-74
2021/04/06 02:09:59;;;;;;;12.88;9.18;;;;;;;3.82;76.76;100244.63;1817313;79;22159;-74
2021/04/06 02:12:27;;;;;;;11.68;10.48;;;;;;;3.84;76.78;100244.13;1817182;78;20903;-76
2021/04/06 02:15:00;;;;;;;13.53;10.45;;;;;;;3.85;76.75;100246.67;1817204;79;20887;-73
2021/04/06 02:17:28;;;;;;;14.95;10.65;;;;;;;3.87;76.75;100252.64;1817419;79;21340;-72
2021/04/06 02:19:56;;;;;;;14.20;10.05;;;;;;;3.86;76.79;100260.02;1817255;79;20883;-74
2021/04/06 02:22:25;;;;;;;12.98;9.55;;;;;;;3.83;76.79;100248.48;1817221;79;21317;-73
2021/04/06 02:24:54;;;;;;;12.25;8.53;;;;;;;3.82;76.90;100251.95;1817159;79;21492;-74
2021/04/06 02:27:30;;;;;;;11.55;8.90;;;;;;;3.81;77.08;100242.95;1817170;78;21424;-74
2021/04/06 02:30:00;;;;;;;10.00;8.90;;;;;;;3.79;77.21;100253.84;1817259;78;20923;-73
2021/04/06 02:32:30;;;;;;;11.35;9.23;;;;;;;3.76;77.34;100255.23;1817261;78;20911;-74
2021/04/06 02:35:10;;;;;;;13.10;10.58;;;;;;;3.73;77.43;100251.88;1817359;77;22346;-72
2021/04/06 02:37:43;;;;;;;12.40;9.80;;;;;;;3.70;77.57;100255.87;1817248;79;21033;-73
2021/04/06 02:40:18;;;;;;;11.15;10.00;;;;;;;3.65;77.74;100253.06;1817200;78;20975;-74
2021/04/06 02:42:48;;;;;;;14.65;11.35;;;;;;;3.62;77.84;100264.37;1817222;79;21507;-74
2021/04/06 02:45:20;;;;;;;14.50;11.60;;;;;;;3.59;78.09;100258.47;1817369;79;21294;-75
2021/04/06 02:48:05;;;;;;;12.60;9.75;;;;;;;3.56;78.34;100263.75;1817226;79;21359;-74
2021/04/06 02:50:33;;;;;;;12.40;9.48;;;;;;;3.56;78.52;100259.44;1817246;77;21002;-74
2021/04/06 02:53:07;;;;;;;12.20;10.55;;;;;;;3.53;78.80;100247.86;1817291;77;21006;-74
2021/04/06 02:55:37;;;;;;;13.50;9.65;;;;;;;3.58;79.00;100255.47;1817165;79;20931;-73
2021/04/06 02:58:15;;;;;;;13.83;10.58;;;;;;;3.60;79.07;100252.38;1786167;79;20911;-73
2021/04/06 03:00:44;;;;;;;14.65;10.80;;;;;;;3.62;79.08;100260.94;1817217;78;21407;-72
2021/04/06 03:03:27;;;;;;;14.58;10.95;;;;;;;3.63;79.04;100259.59;1817135;79;20990;-73
2021/04/06 03:06:10;;;;;;;12.85;10.05;;;;;;;3.65;79.08;100264.73;1817244;79;20955;-72
2021/04/06 03:08:39;;;;;;;18.80;11.68;;;;;;;3.64;79.16;100266.91;1817221;79;20934;-73
2021/04/06 03:11:12;;;;;;;15.30;10.20;;;;;;;3.62;79.28;100259.19;1817354;79;21305;-73
2021/04/06 03:13:43;;;;;;;16.70;10.55;;;;;;;3.63;79.43;100262.65;1817533;79;21407;-76
2021/04/06 03:16:12;;;;;;;14.25;10.90;;;;;;;3.63;79.58;100254.88;1817292;77;21002;-74
2021/04/06 03:18:41;;;;;;;16.10;10.60;;;;;;;3.62;79.65;100256.59;1817373;79;21368;-76
2021/04/06 03:21:12;;;;;;;12.78;10.20;;;;;;;3.61;79.84;100254.92;1817350;79;20963;-76
2021/04/06 03:23:41;;;;;;;12.30;10.20;;;;;;;3.62;79.99;100264.83;1817360;79;20939;-75
2021/04/06 03:26:09;;;;;;;11.48;9.88;;;;;;;3.63;79.98;100262.65;1819506;78;21350;-75
2021/04/06 03:28:39;;;;;;;10.63;9.45;;;;;;;3.64;80.10;100271.64;1832314;78;20949;-74
2021/04/06 03:31:15;;;;;;;14.07;10.53;;;;;;;3.65;80.18;100268.63;1832447;78;21037;-75
2021/04/06 03:33:47;;;;;;;12.82;10.85;;;;;;;3.66;80.25;100272.44;1832395;78;20875;-77
2021/04/06 03:36:29;;;;;;;14.23;10.03;;;;;;;3.66;80.30;100271.59;1832446;78;20915;-76
2021/04/06 03:39:04;;;;;;;14.85;10.35;;;;;;;3.68;80.26;100284.90;1831401;78;22069;-75
2021/04/06 03:41:33;;;;;;;15.40;12.33;;;;;;;3.70;80.30;100283.09;1832710;78;20969;-76
2021/04/06 03:44:08;;;;;;;14.40;9.90;;;;;;;3.72;80.48;100283.88;1832545;78;21443;-74
2021/04/06 03:46:40;;;;;;;17.45;10.55;;;;;;;3.75;80.63;100293.30;1832509;77;20910;-75
2021/04/06 03:49:17;;;;;;;11.28;10.13;;;;;;;3.78;80.89;100289.73;1832495;77;20887;-74
2021/04/06 03:51:50;;;;;;;14.90;11.38;;;;;;;3.81;81.04;100289.19;1832365;78;21375;-74
2021/04/06 03:54:42;;;;;;;13.32;10.05;;;;;;;3.85;81.04;100286.88;1832367;78;20950;-74
2021/04/06 03:57:39;;;;;;;13.88;9.43;;;;;;;3.95;81.19;100296.44;1832449;77;21041;-74
2021/04/06 04:00:08;;;;;;;14.63;8.80;;;;;;;4.09;81.11;100291.59;1832383;78;20878;-74
2021/04/06 04:02:36;;;;;;;14.73;9.55;;;;;;;4.25;80.98;100278.85;1832452;78;20871;-74
2021/04/06 04:05:06;;;;;;;12.60;9.53;;;;;;;4.46;80.68;100282.80;1832487;78;21743;-76
2021/04/06 04:07:36;;;;;;;15.95;10.88;;;;;;;4.61;80.29;100286.08;1832429;78;21353;-76
2021/04/06 04:10:07;;;;;;;17.75;10.00;;;;;;;4.72;79.75;100280.44;1832433;78;20950;-76
2021/04/06 04:12:35;;;;;;;19.30;13.72;;;;;;;4.74;79.44;100279.93;1832563;78;20914;-74
2021/04/06 04:15:06;;;;;;;21.57;14.45;;;;;;;4.72;79.33;100286.48;1832475;77;21001;-75
2021/04/06 04:17:34;;;;;;;12.37;9.90;;;;;;;4.71;79.29;100282.20;1832397;78;21369;-73
2021/04/06 04:20:10;;;;;;;14.85;9.58;;;;;;;4.70;79.31;100283.55;1832446;78;20962;-76
2021/04/06 04:22:38;;;;;;;11.05;7.85;;;;;;;4.69;79.44;100290.94;1832510;78;20918;-76
2021/04/06 04:25:08;;;;;;;12.50;9.20;;;;;;;4.67;79.60;100295.34;1832412;78;20922;-75
2021/04/06 04:27:37;;;;;;;14.23;10.15;;;;;;;4.72;79.83;100294.27;1832303;77;20914;-74
2021/04/06 04:30:07;;;;;;;13.10;8.58;;;;;;;4.88;79.81;100297.53;1832382;78;22364;-76
2021/04/06 04:32:37;;;;;;;12.58;9.18;;;;;;;5.07;79.46;100297.59;1832017;78;20934;-76
2021/04/06 04:35:06;;;;;;;12.58;8.98;;;;;;;5.26;78.90;100302.86;1832323;78;20993;-73
2021/04/06 04:37:34;;;;;;;18.07;11.95;;;;;;;5.45;78.43;100297.26;1832321;78;20938;-73
2021/04/06 04:40:05;;;;;;;10.32;8.48;;;;;;;5.64;77.86;100301.64;1832360;78;21035;-74
2021/04/06 04:42:35;;;;;;;12.90;8.25;;;;;;;5.83;77.33;100301.20;1832381;78;22589;-73
2021/04/06 04:45:07;;;;;;;13.38;8.93;;;;;;;6.00;76.73;100303.91;1832302;78;20953;-75
2021/04/06 04:47:36;;;;;;;15.10;10.65;;;;;;;6.20;76.18;100299.52;1832177;77;20898;-75
2021/04/06 04:50:05;;;;;;;12.70;9.88;;;;;;;6.41;75.88;100300.27;1832291;78;20902;-73
2021/04/06 04:52:33;;;;;;;11.90;9.38;;;;;;;6.60;75.07;100291.96;1832368;77;20985;-74
2021/04/06 04:55:02;;;;;;;11.80;9.03;;;;;;;6.84;74.58;100295.09;1832341;77;21360;-73
2021/04/06 04:57:30;;;;;;;13.13;8.53;;;;;;;7.00;73.77;100296.50;1832259;77;21562;-74
2021/04/06 04:59:58;;;;;;;13.75;10.28;;;;;;;7.21;73.33;100302.84;1832031;78;21339;-73
2021/04/06 05:02:27;;;;;;;16.48;13.03;;;;;;;7.35;72.82;100295.61;1832167;78;21429;-74
2021/04/06 05:04:55;;;;;;;14.07;10.18;;;;;;;7.73;72.02;100301.88;1832444;78;21340;-72
2021/04/06 05:07:26;;;;;;;14.30;9.23;;;;;;;8.13;70.65;100301.03;1832293;78;21358;-71
2021/04/06 05:09:54;;;;;;;13.28;9.70;;;;;;;8.56;69.68;100299.52;1832263;78;20906;-71
2021/04/06 05:12:23;;;;;;;9.55;8.35;;;;;;;8.92;68.17;100305.70;1832248;78;21443;-72
2021/04/06 05:14:51;;;;;;;10.95;8.83;;;;;;;9.25;67.09;100301.17;1832264;77;21454;-71
2021/04/06 05:17:20;;;;;;;11.97;8.40;;;;;;;9.46;66.06;100297.28;1832295;78;21021;-74
2021/04/06 05:19:48;;;;;;;14.07;9.83;;;;;;;9.68;65.39;100296.81;1832296;78;21356;-74
2021/04/06 05:22:16;;;;;;;13.30;9.53;;;;;;;9.83;64.22;100303.36;1832231;77;20942;-75
2021/04/06 05:24:44;;;;;;;9.95;8.65;;;;;;;9.96;63.97;100293.80;1832345;78;20922;-78
2021/04/06 05:27:12;;;;;;;13.90;10.68;;;;;;;10.06;63.88;100305.84;1828148;77;21030;-74
2021/04/06 05:29:40;;;;;;;13.28;10.55;;;;;;;10.10;63.38;100304.72;1817302;79;21085;-71
2021/04/06 05:32:08;;;;;;;17.75;11.40;;;;;;;10.02;63.28;100301.73;1817214;79;21195;-74
2021/04/06 05:34:36;;;;;;;14.75;10.50;;;;;;;10.04;63.76;100307.24;1817134;79;21408;-74
2021/04/06 05:37:05;;;;;;;13.50;9.65;;;;;;;10.24;63.18;100302.05;1817199;78;20998;-74
2021/04/06 05:39:33;;;;;;;15.30;10.60;;;;;;;10.23;62.84;100310.03;1817214;77;20975;-74
2021/04/06 05:42:04;;;;;;;13.78;10.25;;;;;;;10.07;63.03;100312.31;1817278;77;21376;-73
2021/04/06 05:44:50;;;;;;;13.28;11.57;;;;;;;9.95;63.55;100313.90;1817256;77;22459;-74
2021/04/06 05:47:22;;;;;;;12.23;10.10;;;;;;;9.80;63.98;100317.94;1817098;79;20943;-76
2021/04/06 05:49:50;;;;;;;14.33;11.35;;;;;;;9.68;64.73;100309.91;1817174;79;21010;-74
2021/04/06 05:52:18;;;;;;;11.75;10.50;;;;;;;9.69;64.93;100323.83;1817285;78;21371;-74
2021/04/06 05:54:48;;;;;;;10.15;9.15;;;;;;;9.69;64.99;100323.83;1817066;79;21337;-73
2021/04/06 05:57:16;;;;;;;16.30;9.38;;;;;;;9.67;64.92;100321.33;1817306;78;21354;-74
2021/04/06 05:59:45;;;;;;;14.78;10.28;;;;;;;9.61;65.01;100320.38;1817262;78;21345;-75
2021/04/06 06:02:13;;;;;;;17.65;11.12;;;;;;;9.62;65.10;100323.84;1817404;78;20963;-74
2021/04/06 06:04:42;;;;;;;13.35;10.72;;;;;;;9.58;65.46;100332.33;1817296;77;21112;-73
2021/04/06 06:07:15;;;;;;;11.12;10.03;;;;;;;9.55;65.19;100325.52;1817216;79;21551;-74
2021/04/06 06:09:42;;;;;;;13.80;11.75;;;;;;;9.54;65.30;100327.77;1817021;79;22375;-74
2021/04/06 06:12:13;;;;;;;12.63;11.25;;;;;;;9.59;65.33;100333.20;1816988;78;21010;-74
2021/04/06 06:14:44;;;;;;;12.63;11.00;;;;;;;9.62;65.11;100331.22;1816994;79;21014;-74
2021/04/06 06:17:26;;;;;;;13.15;10.15;;;;;;;9.71;64.56;100333.27;1817426;78;20942;-75
2021/04/06 06:19:56;;;;;;;12.88;9.35;;;;;;;9.89;64.55;100324.78;1817191;78;20939;-74
2021/04/06 06:22:29;;;;;;;11.28;8.68;;;;;;;10.24;63.86;100332.19;1817201;79;21355;-76
2021/04/06 06:25:11;;;;;;;9.13;7.83;;;;;;;10.53;63.21;100334.30;1816238;79;21014;-75
2021/04/06 06:27:45;;;;;;;12.53;11.22;;;;;;;10.93;61.69;100343.50;1821176;77;20986;-75
2021/04/06 06:30:37;;;;;;;10.08;8.60;;;;;;;11.40;60.70;100343.44;1829599;77;20962;-75
2021/04/06 06:33:29;;;;;;;10.95;8.60;;;;;;;11.93;59.39;100340.69;1829685;78;20902;-74
2021/04/06 06:36:01;;;;;;;9.08;6.72;;;;;;;12.43;56.89;100345.94;1829684;77;21376;-77
2021/04/06 06:38:35;;;;;;;8.63;7.45;;;;;;;12.77;55.56;100347.42;1829724;78;21001;-76
2021/04/06 06:41:18;;;;;;;8.63;6.65;;;;;;;12.89;55.35;100346.50;1829781;78;21518;-75
2021/04/06 06:43:50;;;;;;;8.88;7.78;;;;;;;12.90;54.82;100348.20;1829709;78;21471;-78
2021/04/06 06:46:24;;;;;;;9.10;7.42;;;;;;;12.60;55.32;100346.84;1829608;77;20891;-78
2021/04/06 06:49:05;;;;;;;14.03;6.92;;;;;;;12.47;55.85;100341.28;1830028;77;21355;-77
2021/04/06 06:51:37;;;;;;;7.80;6.62;;;;;;;12.36;56.25;100343.37;1829802;77;21553;-78
2021/04/06 06:54:06;;;;;;;6.95;6.20;;;;;;;12.33;56.12;100347.55;1829832;77;20918;-76
2021/04/06 06:56:41;;;;;;;5.30;4.80;;;;;;;12.58;55.98;100346.59;1829553;77;20978;-78
2021/04/06 06:59:10;;;;;;;7.17;4.83;;;;;;;12.76;54.96;100341.78;1829925;78;21057;-78
2021/04/06 07:01:38;;;;;;;5.12;4.35;;;;;;;12.87;55.07;100343.14;1829835;78;21262;-77
2021/04/06 07:04:12;;;;;;;5.80;4.58;;;;;;;12.85;54.71;100348.54;1829737;78;20938;-77
2021/04/06 07:06:43;;;;;;;7.50;5.03;;;;;;;12.92;54.57;100349.41;1830290;77;21002;-77
2021/04/06 07:09:21;;;;;;;5.50;4.28;;;;;;;12.79;54.50;100349.47;1829902;77;21598;-79
2021/04/06 07:12:04;;;;;;;7.25;4.35;;;;;;;12.62;54.84;100350.69;1890114;76;22664;-77
2021/04/06 07:14:33;;;;;;;6.58;4.97;;;;;;;12.23;55.60;100350.83;1861008;77;20942;-78
2021/04/06 07:17:04;;;;;;;8.25;5.10;;;;;;;11.85;56.83;100365.33;1823195;78;21354;-78
2021/04/06 07:19:44;;;;;;;7.60;5.87;;;;;;;11.63;57.38;100364.66;1823061;78;20986;-76
2021/04/06 07:22:14;;;;;;;6.20;5.05;;;;;;;11.35;58.11;100363.05;1823273;78;20932;-77
2021/04/06 07:24:42;;;;;;;13.68;7.28;;;;;;;11.12;59.29;100354.94;1823436;78;21004;-77
2021/04/06 07:27:13;;;;;;;10.50;7.85;;;;;;;10.92;59.93;100361.98;1823351;78;21572;-76
2021/04/06 07:29:42;;;;;;;7.05;6.33;;;;;;;10.73;60.80;100361.02;1823232;78;21315;-75
2021/04/06 07:32:13;;;;;;;7.65;5.80;;;;;;;10.53;61.67;100360.52;1823113;78;20995;-73
2021/04/06 07:34:43;;;;;;;8.70;6.10;;;;;;;10.40;61.94;100364.02;1823246;78;20984;-76
2021/04/06 07:37:13;;;;;;;10.00;6.20;;;;;;;10.27;62.53;100352.98;1792483;78;21134;-74
2021/04/06 07:39:41;;;;;;;10.70;6.95;;;;;;;10.20;63.12;100357.38;1823134;78;20983;-75
2021/04/06 07:42:09;;;;;;;10.82;6.58;;;;;;;10.20;63.61;100356.07;1823163;78;21639;-75
2021/04/06 07:44:37;;;;;;;11.18;7.30;;;;;;;10.24;63.95;100354.95;1791861;78;20964;-72
2021/04/06 07:47:05;;;;;;;9.55;6.03;;;;;;;10.31;63.80;100354.95;1823146;78;20944;-73
2021/04/06 07:49:37;;;;;;;6.85;5.80;;;;;;;10.48;63.72;100357.35;1823142;78;21386;-74
2021/04/06 07:52:18;;;;;;;10.88;5.92;;;;;;;10.61;63.59;100356.10;1823299;78;20924;-74
2021/04/06 07:54:48;;;;;;;9.70;5.70;;;;;;;10.78;63.24;100354.99;1822643;78;21259;-74
2021/04/06 07:57:16;;;;;;;8.35;5.12;;;;;;;10.98;62.73;100353.23;1823203;78;21323;-75
2021/04/06 07:59:53;;;;;;;6.50;4.67;;;;;;;11.30;61.79;100346.78;1823216;78;20944;-75
2021/04/06 08:02:24;;;;;;;8.10;5.70;;;;;;;11.65;60.72;100337.81;1823158;78;20984;-73
2021/04/06 08:04:57;;;;;;;7.72;5.00;;;;;;;12.10;60.09;100330.80;1823346;78;20999;-71
2021/04/06 08:07:35;;;;;;;7.70;5.53;;;;;;;12.44;58.03;100341.87;1823851;78;22247;-75
2021/04/06 08:10:15;;;;;;;7.85;6.17;;;;;;;12.78;57.08;100350.41;1822997;78;21316;-77
2021/04/06 08:12:45;;;;;;;11.40;6.05;;;;;;;12.93;56.29;100336.11;1823143;78;20905;-76
2021/04/06 08:15:19;;;;;;;7.25;5.80;;;;;;;13.01;55.82;100339.02;1792511;78;20928;-77
2021/04/06 08:17:52;;;;;;;6.33;4.78;;;;;;;13.18;54.84;100343.48;1823575;78;21062;-74
2021/04/06 08:20:33;;;;;;;8.43;5.12;;;;;;;13.17;54.26;100336.56;1823187;78;21618;-76
2021/04/06 08:23:11;;;;;;;10.60;6.05;;;;;;;13.31;54.22;100331.10;1822792;78;21030;-78
2021/04/06 08:25:43;;;;;;;5.50;4.87;;;;;;;13.64;54.09;100332.95;1822843;78;21445;-76
2021/04/06 08:28:33;;;;;;;7.28;4.50;;;;;;;14.21;52.43;100335.09;1822790;78;20996;-74
2021/04/06 08:31:26;;;;;;;7.45;5.35;;;;;;;14.63;50.87;100331.30;1822527;78;20976;-75
2021/04/06 08:33:55;;;;;;;7.05;4.47;;;;;;;14.64;49.77;100344.00;1822599;78;21238;-71
2021/04/06 08:36:27;;;;;;;7.95;4.90;;;;;;;14.64;49.77;100344.00;1822575;78;21425;-74
2021/04/06 08:38:57;;;;;;;;;;;;;;;14.60;49.35;100336.80;1825268;78;21326;-76
2021/04/06 08:41:32;;;;;;;9.70;5.83;;;;;;;14.67;48.90;100337.14;1822659;78;20156;-77
2021/04/06 08:44:04;;;;;;;5.42;4.25;;;;;;;14.62;48.99;100330.92;1822806;78;20980;-76
2021/04/06 08:46:49;;;;;;;4.97;4.50;;;;;;;14.64;49.44;100328.17;1822623;78;20940;-76
2021/04/06 08:49:25;;;;;;;13.75;7.85;;;;;;;14.81;49.14;100326.80;1822667;78;20967;-76
2021/04/06 08:52:00;;;;;;;7.10;5.00;;;;;;;15.01;48.41;100318.54;1822441;78;20940;-78
2021/04/06 08:54:31;;;;;;;8.25;6.30;;;;;;;15.32;48.37;100321.59;1822658;78;21335;-75
2021/04/06 08:57:07;;;;;;;9.98;6.60;;;;;;;15.65;47.18;100318.81;1822611;78;21054;-77
2021/04/06 08:59:42;;;;;;;4.35;3.95;;;;;;;15.66;45.78;100309.94;1822667;78;21369;-77
2021/04/06 09:02:18;;;;;;;7.62;4.28;;;;;;;15.82;45.41;100310.30;1822785;78;21477;-74
2021/04/06 09:04:51;;;;;;;5.78;4.37;;;;;;;16.17;43.72;100307.70;1822655;78;20929;-76
2021/04/06 09:07:28;;;;;;;4.20;3.72;;;;;;;16.17;43.72;100307.70;1791592;78;21114;-75
2021/04/06 09:10:01;;;;;;;4.92;3.87;;;;;;;15.94;42.32;100295.16;1822698;78;21482;-76
2021/04/06 09:12:30;;;;;;;4.25;3.70;;;;;;;16.02;43.64;100297.98;1831309;78;22348;-76
2021/04/06 09:14:59;;;;;;;8.35;5.15;;;;;;;16.02;43.64;100297.98;1804473;78;21501;-76
2021/04/06 09:17:28;;;;;;;6.05;3.75;;;;;;;16.33;42.61;100291.29;1803949;78;20948;-77
2021/04/06 09:19:56;;;;;;;7.00;4.78;;;;;;;16.73;39.89;100294.30;1831816;78;20927;-74
2021/04/06 09:22:24;;;;;;;8.58;5.53;;;;;;;16.73;39.89;100294.30;1831966;78;21481;-76
2021/04/06 09:24:53;;;;;;;6.22;5.20;;;;;;;16.92;39.22;100290.36;1831761;78;22365;-76
2021/04/06 09:27:21;;;;;;;15.48;9.65;;;;;;;17.04;37.54;100291.53;1831919;78;20971;-80
2021/04/06 09:29:50;;;;;;;10.60;5.72;;;;;;;16.82;38.40;100288.20;1831952;78;21051;-76
2021/04/06 09:32:20;;;;;;;6.85;5.45;;;;;;;16.72;37.51;100286.86;1831930;78;21027;-77
2021/04/06 09:34:50;;;;;;;10.82;7.40;;;;;;;16.62;38.85;100281.21;1831977;78;21335;-77
2021/04/06 09:37:21;;;;;;;10.00;5.08;;;;;;;16.84;38.50;100278.80;1831931;78;21356;-79
2021/04/06 09:39:57;;;;;;;7.40;5.40;;;;;;;17.21;38.24;100282.85;1830888;78;21038;-77
2021/04/06 09:42:26;;;;;;;6.17;3.35;;;;;;;17.72;36.61;100264.31;1831922;78;20940;-76
2021/04/06 09:47:47;;;;;;;3.75;3.40;;;;;;;18.43;33.29;100278.69;1816215;79;22583;-75
2021/04/06 09:50:16;;;;;;;10.80;4.22;;;;;;;18.18;33.02;100267.83;1788983;80;20938;-74
2021/04/06 09:52:44;;;;;;;6.92;3.45;;;;;;;18.06;33.81;100277.50;1789315;80;21500;-75
2021/04/06 09:55:13;;;;;;;3.25;2.80;;;;;;;17.70;33.35;100273.41;1789213;80;20998;-75
2021/04/06 09:57:44;;;;;;;5.78;3.83;;;;;;;17.33;33.58;100283.51;1789111;80;21041;-73
2021/04/06 10:00:18;;;;;;;14.90;9.88;;;;;;;17.08;34.24;100279.67;1789163;80;21006;-77
2021/04/06 10:03:14;;;;;;;9.20;8.20;;;;;;;16.98;33.59;100279.67;1788929;80;20950;-78
2021/04/06 10:05:45;;;;;;;9.43;6.75;;;;;;;16.97;32.78;100271.39;1789218;80;22220;-78
2021/04/06 10:08:13;;;;;;;7.75;5.25;;;;;;;17.01;32.09;100279.88;1789146;80;21452;-78
2021/04/06 10:10:48;;;;;;;7.92;4.67;;;;;;;16.99;32.68;100272.91;1789036;80;21442;-76
2021/04/06 10:13:16;;;;;;;6.00;3.05;;;;;;;17.31;32.64;100265.59;1789135;80;20947;-78
2021/04/06 10:15:44;;;;;;;3.92;3.22;;;;;;;17.55;31.66;100275.69;1749848;81;20939;-78
2021/04/06 10:18:16;;;;;;;4.22;2.72;;;;;;;17.54;31.30;100282.82;1757861;81;21567;-75
2021/04/06 10:20:50;;;;;;;14.75;7.78;;;;;;;17.14;32.06;100279.94;1758528;81;21380;-78
2021/04/06 10:23:33;;;;;;;6.85;4.40;;;;;;;16.74;33.20;100273.45;1758180;81;21158;-77
2021/04/06 10:26:04;;;;;;;4.33;3.12;;;;;;;16.51;33.97;100263.65;1757825;81;21078;-77
2021/04/06 10:28:32;;;;;;;3.20;2.67;;;;;;;16.37;33.86;100273.67;1728589;81;21029;-77
2021/04/06 10:31:03;;;;;;;3.98;3.55;;;;;;;16.20;33.04;100258.47;1757941;81;22322;-80
2021/04/06 10:33:40;;;;;;;3.70;2.33;;;;;;;16.11;32.71;100254.83;1757911;81;21384;-79
2021/04/06 10:36:17;;;;;;;4.65;2.92;;;;;;;16.08;32.29;100237.09;1757847;81;20939;-75
2021/04/06 10:38:46;;;;;;;3.15;2.85;;;;;;;15.95;32.04;100247.92;1730494;81;20960;-76
2021/04/06 10:41:17;;;;;;;4.60;2.75;;;;;;;16.12;31.96;100238.00;1757931;81;20995;-75
2021/04/06 10:43:50;;;;;;;22.20;9.38;;;;;;;16.32;30.68;100244.15;1758045;81;20958;-77
2021/04/06 10:46:22;;;;;;;6.00;3.95;;;;;;;16.50;30.13;100240.32;1755951;81;21384;-77
2021/04/06 10:49:03;;;;;;;6.55;4.30;;;;;;;16.33;30.52;100233.91;1750553;82;21062;-76
2021/04/06 10:51:33;;;;;;;4.67;4.17;;;;;;;16.50;31.01;100231.05;1750373;82;21038;-76
2021/04/06 10:54:10;;;;;;;11.48;7.37;;;;;;;16.77;30.92;100241.42;1750430;82;20990;-76
2021/04/06 10:56:46;;;;;;;4.55;3.35;;;;;;;16.83;30.72;100223.67;1725545;82;20963;-76
2021/04/06 10:59:17;;;;;;;4.42;3.67;;;;;;;16.92;30.57;100224.14;1750018;82;21459;-79
2021/04/06 11:01:49;;;;;;;7.17;2.72;;;;;;;17.20;31.07;100218.89;1748754;82;21373;-77
2021/04/06 11:04:24;;;;;;;9.10;4.83;;;;;;;17.46;29.71;100210.30;1749842;82;21406;-76
2021/04/06 11:06:59;;;;;;;7.78;4.75;;;;;;;17.69;28.58;100210.22;1749792;82;21492;-76
2021/04/06 11:09:46;;;;;;;7.50;5.08;;;;;;;17.90;28.80;100216.64;1749947;82;22337;-76
2021/04/06 11:12:16;;;;;;;4.78;3.52;;;;;;;18.14;28.62;100211.22;1749691;82;21393;-77
2021/04/06 11:14:45;;;;;;;4.28;2.45;;;;;;;18.18;29.39;100213.42;1749932;82;21564;-79
2021/04/06 11:17:15;;;;;;;8.95;4.53;;;;;;;18.12;28.80;100213.19;1750085;82;21531;-74
2021/04/06 11:19:47;;;;;;;5.40;3.40;;;;;;;17.95;29.33;100212.20;1750158;82;21133;-74
2021/04/06 11:22:18;;;;;;;4.87;4.33;;;;;;;17.76;29.74;100208.67;1750817;82;21764;-73
2021/04/06 11:24:50;;;;;;;5.15;3.27;;;;;;;17.54;30.16;100203.74;1751241;82;20970;-77
2021/04/06 11:27:18;;;;;;;6.30;4.12;;;;;;;17.37;30.35;100210.18;1753443;82;20939;-75
2021/04/06 11:29:47;;;;;;;3.75;3.00;;;;;;;17.14;30.82;100203.56;1752869;82;20962;-73
2021/04/06 11:32:20;;;;;;;4.55;3.60;;;;;;;17.04;30.31;100197.48;1752729;82;20978;-73
2021/04/06 11:34:48;;;;;;;11.40;3.55;;;;;;;16.94;30.61;100202.32;1750096;82;21413;-76
2021/04/06 11:37:16;;;;;;;2.70;2.50;;;;;;;16.84;30.34;100199.34;1749846;82;20923;-76
2021/04/06 11:39:47;;;;;;;3.77;3.45;;;;;;;16.73;30.71;100192.36;1750005;82;20963;-77
2021/04/06 11:42:16;;;;;;;2.85;2.65;;;;;;;16.67;30.81;100192.42;1750531;82;20958;-75
2021/04/06 11:44:46;;;;;;;3.75;3.02;;;;;;;16.57;31.15;100190.30;1750134;82;21357;-76
2021/04/06 11:47:14;;;;;;;4.87;3.27;;;;;;;16.38;31.53;100193.78;1746856;82;22379;-74